sensor_id;sensor_type;location;lat;lon;timestamp;temperature;humidity
7163;DHT22;3623;47.098;15.446;2023-06-05T00:02:26;14.60;99.90
7163;DHT22;3623;47.098;15.446;2023-06-05T00:04:54;14.50;99.90
7163;DHT22;3623;47.098;15.446;2023-06-05T00:07:21;14.60;99.90
7163;DHT22;3623;47.098;15.446;2023-06-05T00:09:49;14.60;99.90
7163;DHT22;3623;47.098;15.446;2023-06-05T00:12:16;14.60;99.90
7163;DHT22;3623;47.098;15.446;2023-06-05T00:14:43;15.10;99.90
7163;DHT22;3623;47.098;15.446;2023-06-05T00:17:10;14.60;99.90
7163;DHT22;3623;47.098;15.446;2023-06-05T00:19:38;14.50;99.90
7163;DHT22;3623;47.098;15.446;2023-06-05T00:22:05;14.60;99.90
7163;DHT22;3623;47.098;15.446;2023-06-05T00:24:32;14.50;99.90
7163;DHT22;3623;47.098;15.446;2023-06-05T00:27:00;14.60;99.90
7163;DHT22;3623;47.098;15.446;2023-06-05T00:29:27;14.60;99.90
7163;DHT22;3623;47.098;15.446;2023-06-05T00:31:54;14.70;99.90
7163;DHT22;3623;47.098;15.446;2023-06-05T00:34:21;14.70;99.90
7163;DHT22;3623;47.098;15.446;2023-06-05T00:36:48;14.60;99.90
7163;DHT22;3623;47.098;15.446;2023-06-05T00:39:16;14.60;99.90
7163;DHT22;3623;47.098;15.446;2023-06-05T00:41:44;14.50;99.90
7163;DHT22;3623;47.098;15.446;2023-06-05T00:44:13;14.60;99.90
7163;DHT22;3623;47.098;15.446;2023-06-05T00:46:41;14.40;99.90
7163;DHT22;3623;47.098;15.446;2023-06-05T00:49:09;14.50;99.90
7163;DHT22;3623;47.098;15.446;2023-06-05T00:51:36;14.50;99.90
7163;DHT22;3623;47.098;15.446;2023-06-05T00:54:05;14.60;99.90
7163;DHT22;3623;47.098;15.446;2023-06-05T00:56:33;14.50;99.90
7163;DHT22;3623;47.098;15.446;2023-06-05T00:59:01;14.50;99.90
7163;DHT22;3623;47.098;15.446;2023-06-05T01:01:30;14.40;99.90
7163;DHT22;3623;47.098;15.446;2023-06-05T01:03:58;14.60;99.90
7163;DHT22;3623;47.098;15.446;2023-06-05T01:06:26;14.30;99.90
7163;DHT22;3623;47.098;15.446;2023-06-05T01:08:54;14.40;99.90
7163;DHT22;3623;47.098;15.446;2023-06-05T01:11:26;14.50;99.90
7163;DHT22;3623;47.098;15.446;2023-06-05T01:14:06;14.50;99.90
7163;DHT22;3623;47.098;15.446;2023-06-05T01:16:38;14.50;99.90
7163;DHT22;3623;47.098;15.446;2023-06-05T01:19:06;14.40;99.90
7163;DHT22;3623;47.098;15.446;2023-06-05T01:21:36;14.50;99.90
7163;DHT22;3623;47.098;15.446;2023-06-05T01:24:05;14.40;99.90
7163;DHT22;3623;47.098;15.446;2023-06-05T01:26:39;14.40;99.90
7163;DHT22;3623;47.098;15.446;2023-06-05T01:29:11;14.60;99.90
7163;DHT22;3623;47.098;15.446;2023-06-05T01:31:42;14.40;99.90
7163;DHT22;3623;47.098;15.446;2023-06-05T01:34:12;14.40;99.90
7163;DHT22;3623;47.098;15.446;2023-06-05T01:36:45;14.30;99.90
7163;DHT22;3623;47.098;15.446;2023-06-05T01:39:14;14.30;99.90
7163;DHT22;3623;47.098;15.446;2023-06-05T01:41:44;14.20;99.90
7163;DHT22;3623;47.098;15.446;2023-06-05T01:44:13;14.40;99.90
7163;DHT22;3623;47.098;15.446;2023-06-05T01:46:41;14.20;99.90
7163;DHT22;3623;47.098;15.446;2023-06-05T01:49:10;14.20;99.90
7163;DHT22;3623;47.098;15.446;2023-06-05T01:51:37;14.20;99.90
7163;DHT22;3623;47.098;15.446;2023-06-05T01:54:04;14.20;99.90
7163;DHT22;3623;47.098;15.446;2023-06-05T01:56:33;14.30;99.90
7163;DHT22;3623;47.098;15.446;2023-06-05T01:59:02;14.20;99.90
7163;DHT22;3623;47.098;15.446;2023-06-05T02:01:33;14.20;99.90
7163;DHT22;3623;47.098;15.446;2023-06-05T02:04:01;14.30;99.90
7163;DHT22;3623;47.098;15.446;2023-06-05T02:06:34;14.40;99.90
7163;DHT22;3623;47.098;15.446;2023-06-05T02:09:07;14.30;99.90
7163;DHT22;3623;47.098;15.446;2023-06-05T02:11:37;14.40;99.90
7163;DHT22;3623;47.098;15.446;2023-06-05T02:14:05;14.20;99.90
7163;DHT22;3623;47.098;15.446;2023-06-05T02:16:33;14.20;99.90
7163;DHT22;3623;47.098;15.446;2023-06-05T02:19:02;14.30;99.90
7163;DHT22;3623;47.098;15.446;2023-06-05T02:21:30;14.30;99.90
7163;DHT22;3623;47.098;15.446;2023-06-05T02:23:58;14.30;99.90
7163;DHT22;3623;47.098;15.446;2023-06-05T02:26:26;14.10;99.90
7163;DHT22;3623;47.098;15.446;2023-06-05T02:28:55;14.20;99.90
7163;DHT22;3623;47.098;15.446;2023-06-05T02:31:22;14.20;99.90
7163;DHT22;3623;47.098;15.446;2023-06-05T02:33:52;14.20;99.90
7163;DHT22;3623;47.098;15.446;2023-06-05T02:36:21;14.20;99.90
7163;DHT22;3623;47.098;15.446;2023-06-05T02:38:48;14.30;99.90
7163;DHT22;3623;47.098;15.446;2023-06-05T02:41:18;14.20;99.90
7163;DHT22;3623;47.098;15.446;2023-06-05T02:43:47;14.20;99.90
7163;DHT22;3623;47.098;15.446;2023-06-05T02:46:15;14.40;99.90
7163;DHT22;3623;47.098;15.446;2023-06-05T02:48:42;14.20;99.90
7163;DHT22;3623;47.098;15.446;2023-06-05T02:51:09;14.10;99.90
7163;DHT22;3623;47.098;15.446;2023-06-05T02:53:36;14.20;99.90
7163;DHT22;3623;47.098;15.446;2023-06-05T02:56:04;14.10;99.90
7163;DHT22;3623;47.098;15.446;2023-06-05T02:58:31;14.30;99.90
7163;DHT22;3623;47.098;15.446;2023-06-05T03:00:59;14.10;99.90
7163;DHT22;3623;47.098;15.446;2023-06-05T03:03:30;14.30;99.90
7163;DHT22;3623;47.098;15.446;2023-06-05T03:05:58;14.30;99.90
7163;DHT22;3623;47.098;15.446;2023-06-05T03:08:30;14.20;99.90
7163;DHT22;3623;47.098;15.446;2023-06-05T03:10:59;14.30;99.90
7163;DHT22;3623;47.098;15.446;2023-06-05T03:13:26;14.30;99.90
7163;DHT22;3623;47.098;15.446;2023-06-05T03:15:53;14.20;99.90
7163;DHT22;3623;47.098;15.446;2023-06-05T03:18:23;14.20;99.90
7163;DHT22;3623;47.098;15.446;2023-06-05T03:20:52;14.30;99.90
7163;DHT22;3623;47.098;15.446;2023-06-05T03:23:21;14.20;99.90
7163;DHT22;3623;47.098;15.446;2023-06-05T03:25:48;14.20;99.90
7163;DHT22;3623;47.098;15.446;2023-06-05T03:28:16;14.30;99.90
7163;DHT22;3623;47.098;15.446;2023-06-05T03:30:44;14.20;99.90
7163;DHT22;3623;47.098;15.446;2023-06-05T03:33:11;14.30;99.90
7163;DHT22;3623;47.098;15.446;2023-06-05T03:35:39;14.20;99.90
7163;DHT22;3623;47.098;15.446;2023-06-05T03:38:08;14.40;99.90
7163;DHT22;3623;47.098;15.446;2023-06-05T03:40:35;14.40;99.90
7163;DHT22;3623;47.098;15.446;2023-06-05T03:43:05;14.30;99.90
7163;DHT22;3623;47.098;15.446;2023-06-05T03:45:32;14.30;99.90
7163;DHT22;3623;47.098;15.446;2023-06-05T03:47:59;14.30;99.90
7163;DHT22;3623;47.098;15.446;2023-06-05T03:50:27;14.30;99.90
7163;DHT22;3623;47.098;15.446;2023-06-05T03:52:56;14.40;99.90
7163;DHT22;3623;47.098;15.446;2023-06-05T03:55:31;14.40;99.90
7163;DHT22;3623;47.098;15.446;2023-06-05T03:58:08;14.40;99.90
7163;DHT22;3623;47.098;15.446;2023-06-05T04:00:36;14.50;99.90
7163;DHT22;3623;47.098;15.446;2023-06-05T04:03:03;14.30;99.90
7163;DHT22;3623;47.098;15.446;2023-06-05T04:05:30;14.40;99.90
7163;DHT22;3623;47.098;15.446;2023-06-05T04:07:57;14.50;99.90
7163;DHT22;3623;47.098;15.446;2023-06-05T04:10:24;14.60;99.90
7163;DHT22;3623;47.098;15.446;2023-06-05T04:12:53;14.50;99.90
7163;DHT22;3623;47.098;15.446;2023-06-05T04:15:20;14.60;99.90
7163;DHT22;3623;47.098;15.446;2023-06-05T04:17:47;14.60;99.90
7163;DHT22;3623;47.098;15.446;2023-06-05T04:20:15;14.70;99.90
7163;DHT22;3623;47.098;15.446;2023-06-05T04:22:42;14.60;99.90
7163;DHT22;3623;47.098;15.446;2023-06-05T04:25:09;14.70;99.90
7163;DHT22;3623;47.098;15.446;2023-06-05T04:27:38;14.70;99.90
7163;DHT22;3623;47.098;15.446;2023-06-05T04:30:09;14.70;99.90
7163;DHT22;3623;47.098;15.446;2023-06-05T04:32:38;14.60;99.90
7163;DHT22;3623;47.098;15.446;2023-06-05T04:35:06;14.70;99.90
7163;DHT22;3623;47.098;15.446;2023-06-05T04:37:34;14.70;99.90
7163;DHT22;3623;47.098;15.446;2023-06-05T04:40:02;14.80;99.90
7163;DHT22;3623;47.098;15.446;2023-06-05T04:42:31;14.80;99.90
7163;DHT22;3623;47.098;15.446;2023-06-05T04:45:00;14.80;99.90
7163;DHT22;3623;47.098;15.446;2023-06-05T04:47:31;14.90;99.90
7163;DHT22;3623;47.098;15.446;2023-06-05T04:49:58;14.90;99.90
7163;DHT22;3623;47.098;15.446;2023-06-05T04:52:26;14.90;99.90
7163;DHT22;3623;47.098;15.446;2023-06-05T04:54:55;15.00;99.90
7163;DHT22;3623;47.098;15.446;2023-06-05T04:57:22;15.10;99.90
7163;DHT22;3623;47.098;15.446;2023-06-05T04:59:50;15.20;99.90
7163;DHT22;3623;47.098;15.446;2023-06-05T05:02:18;15.30;99.90
7163;DHT22;3623;47.098;15.446;2023-06-05T05:04:47;15.40;99.90
7163;DHT22;3623;47.098;15.446;2023-06-05T05:07:14;15.40;99.90
7163;DHT22;3623;47.098;15.446;2023-06-05T05:09:42;15.30;99.90
7163;DHT22;3623;47.098;15.446;2023-06-05T05:12:09;15.40;99.90
7163;DHT22;3623;47.098;15.446;2023-06-05T05:14:37;15.30;99.90
7163;DHT22;3623;47.098;15.446;2023-06-05T05:17:05;15.30;99.90
7163;DHT22;3623;47.098;15.446;2023-06-05T05:19:33;15.40;99.90
7163;DHT22;3623;47.098;15.446;2023-06-05T05:22:02;15.40;99.90
7163;DHT22;3623;47.098;15.446;2023-06-05T05:24:29;15.40;99.90
7163;DHT22;3623;47.098;15.446;2023-06-05T05:26:56;15.40;99.90
7163;DHT22;3623;47.098;15.446;2023-06-05T05:29:23;15.40;99.90
7163;DHT22;3623;47.098;15.446;2023-06-05T05:31:50;15.50;99.90
7163;DHT22;3623;47.098;15.446;2023-06-05T05:34:21;15.50;99.90
7163;DHT22;3623;47.098;15.446;2023-06-05T05:36:48;15.50;99.90
7163;DHT22;3623;47.098;15.446;2023-06-05T05:39:18;15.50;99.90
7163;DHT22;3623;47.098;15.446;2023-06-05T05:41:45;15.50;99.90
7163;DHT22;3623;47.098;15.446;2023-06-05T05:44:12;15.60;99.90
7163;DHT22;3623;47.098;15.446;2023-06-05T05:46:39;15.70;99.90
7163;DHT22;3623;47.098;15.446;2023-06-05T05:49:06;15.60;99.90
7163;DHT22;3623;47.098;15.446;2023-06-05T05:51:34;15.50;99.90
7163;DHT22;3623;47.098;15.446;2023-06-05T05:54:01;15.50;99.90
7163;DHT22;3623;47.098;15.446;2023-06-05T05:56:29;15.50;99.90
7163;DHT22;3623;47.098;15.446;2023-06-05T05:58:56;15.60;99.90
7163;DHT22;3623;47.098;15.446;2023-06-05T06:01:23;15.50;99.90
7163;DHT22;3623;47.098;15.446;2023-06-05T06:03:51;15.50;99.90
7163;DHT22;3623;47.098;15.446;2023-06-05T06:06:18;15.50;99.90
7163;DHT22;3623;47.098;15.446;2023-06-05T06:08:45;15.50;99.90
7163;DHT22;3623;47.098;15.446;2023-06-05T06:11:14;15.70;99.90
7163;DHT22;3623;47.098;15.446;2023-06-05T06:13:43;15.50;99.90
7163;DHT22;3623;47.098;15.446;2023-06-05T06:16:10;15.50;99.90
7163;DHT22;3623;47.098;15.446;2023-06-05T06:18:38;15.60;99.90
7163;DHT22;3623;47.098;15.446;2023-06-05T06:21:05;15.70;99.90
7163;DHT22;3623;47.098;15.446;2023-06-05T06:23:32;15.80;99.90
7163;DHT22;3623;47.098;15.446;2023-06-05T06:25:59;15.80;99.90
7163;DHT22;3623;47.098;15.446;2023-06-05T06:28:26;15.90;99.90
7163;DHT22;3623;47.098;15.446;2023-06-05T06:30:55;15.80;99.90
7163;DHT22;3623;47.098;15.446;2023-06-05T06:33:22;16.00;99.90
7163;DHT22;3623;47.098;15.446;2023-06-05T06:35:55;16.00;99.90
7163;DHT22;3623;47.098;15.446;2023-06-05T06:38:24;16.00;99.90
7163;DHT22;3623;47.098;15.446;2023-06-05T06:40:55;15.90;99.90
7163;DHT22;3623;47.098;15.446;2023-06-05T06:43:23;16.00;99.90
7163;DHT22;3623;47.098;15.446;2023-06-05T06:45:51;16.00;99.90
7163;DHT22;3623;47.098;15.446;2023-06-05T06:48:20;16.00;99.90
7163;DHT22;3623;47.098;15.446;2023-06-05T06:50:47;16.00;99.90
7163;DHT22;3623;47.098;15.446;2023-06-05T06:53:17;16.20;99.90
7163;DHT22;3623;47.098;15.446;2023-06-05T06:55:44;16.10;99.90
7163;DHT22;3623;47.098;15.446;2023-06-05T06:58:11;16.30;99.90
7163;DHT22;3623;47.098;15.446;2023-06-05T07:00:39;16.30;99.90
7163;DHT22;3623;47.098;15.446;2023-06-05T07:03:06;16.30;99.90
7163;DHT22;3623;47.098;15.446;2023-06-05T07:05:35;16.30;99.90
7163;DHT22;3623;47.098;15.446;2023-06-05T07:08:02;16.30;99.90
7163;DHT22;3623;47.098;15.446;2023-06-05T07:10:30;16.30;99.90
7163;DHT22;3623;47.098;15.446;2023-06-05T07:12:57;16.40;99.90
7163;DHT22;3623;47.098;15.446;2023-06-05T07:15:24;16.50;99.90
7163;DHT22;3623;47.098;15.446;2023-06-05T07:17:51;16.60;99.90
7163;DHT22;3623;47.098;15.446;2023-06-05T07:20:18;16.40;99.90
7163;DHT22;3623;47.098;15.446;2023-06-05T07:22:47;16.30;99.90
7163;DHT22;3623;47.098;15.446;2023-06-05T07:25:14;16.30;99.90
7163;DHT22;3623;47.098;15.446;2023-06-05T07:27:43;16.20;99.90
7163;DHT22;3623;47.098;15.446;2023-06-05T07:30:11;16.00;99.90
7163;DHT22;3623;47.098;15.446;2023-06-05T07:32:39;16.00;99.90
7163;DHT22;3623;47.098;15.446;2023-06-05T07:35:08;15.90;99.90
7163;DHT22;3623;47.098;15.446;2023-06-05T07:37:36;15.70;99.90
7163;DHT22;3623;47.098;15.446;2023-06-05T07:40:05;15.70;99.90
7163;DHT22;3623;47.098;15.446;2023-06-05T07:42:32;15.70;99.90
7163;DHT22;3623;47.098;15.446;2023-06-05T07:45:00;15.60;99.90
7163;DHT22;3623;47.098;15.446;2023-06-05T07:47:27;15.80;99.90
7163;DHT22;3623;47.098;15.446;2023-06-05T07:49:57;15.60;99.90
7163;DHT22;3623;47.098;15.446;2023-06-05T07:52:25;15.60;99.90
7163;DHT22;3623;47.098;15.446;2023-06-05T07:54:53;15.50;99.90
7163;DHT22;3623;47.098;15.446;2023-06-05T07:57:23;15.40;99.90
7163;DHT22;3623;47.098;15.446;2023-06-05T07:59:51;15.40;99.90
7163;DHT22;3623;47.098;15.446;2023-06-05T08:02:19;15.40;99.90
7163;DHT22;3623;47.098;15.446;2023-06-05T08:04:47;15.40;99.90
7163;DHT22;3623;47.098;15.446;2023-06-05T08:07:14;15.30;99.90
7163;DHT22;3623;47.098;15.446;2023-06-05T08:09:41;15.40;99.90
7163;DHT22;3623;47.098;15.446;2023-06-05T08:12:08;15.30;99.90
7163;DHT22;3623;47.098;15.446;2023-06-05T08:14:37;15.40;99.90
7163;DHT22;3623;47.098;15.446;2023-06-05T08:17:04;15.30;99.90
7163;DHT22;3623;47.098;15.446;2023-06-05T08:19:31;15.10;99.90
7163;DHT22;3623;47.098;15.446;2023-06-05T08:21:58;15.10;99.90
7163;DHT22;3623;47.098;15.446;2023-06-05T08:24:25;15.00;99.90
7163;DHT22;3623;47.098;15.446;2023-06-05T08:26:54;14.80;99.90
7163;DHT22;3623;47.098;15.446;2023-06-05T08:29:21;14.80;99.90
7163;DHT22;3623;47.098;15.446;2023-06-05T08:31:50;14.60;99.90
7163;DHT22;3623;47.098;15.446;2023-06-05T08:34:18;14.50;99.90
7163;DHT22;3623;47.098;15.446;2023-06-05T08:36:52;14.50;99.90
7163;DHT22;3623;47.098;15.446;2023-06-05T08:39:19;14.40;99.90
7163;DHT22;3623;47.098;15.446;2023-06-05T08:41:54;14.40;99.90
7163;DHT22;3623;47.098;15.446;2023-06-05T08:44:27;14.30;99.90
7163;DHT22;3623;47.098;15.446;2023-06-05T08:47:00;14.40;99.90
7163;DHT22;3623;47.098;15.446;2023-06-05T08:49:28;14.30;99.90
7163;DHT22;3623;47.098;15.446;2023-06-05T08:52:05;14.30;99.90
7163;DHT22;3623;47.098;15.446;2023-06-05T08:54:37;14.30;99.90
7163;DHT22;3623;47.098;15.446;2023-06-05T08:57:07;14.40;99.90
7163;DHT22;3623;47.098;15.446;2023-06-05T08:59:34;14.40;99.90
7163;DHT22;3623;47.098;15.446;2023-06-05T09:02:03;14.50;99.90
7163;DHT22;3623;47.098;15.446;2023-06-05T09:04:30;14.50;99.90
7163;DHT22;3623;47.098;15.446;2023-06-05T09:06:58;14.50;99.90
7163;DHT22;3623;47.098;15.446;2023-06-05T09:09:26;14.40;99.90
7163;DHT22;3623;47.098;15.446;2023-06-05T09:12:03;14.40;99.90
7163;DHT22;3623;47.098;15.446;2023-06-05T09:14:31;14.60;99.90
7163;DHT22;3623;47.098;15.446;2023-06-05T09:20:23;14.80;99.90
7163;DHT22;3623;47.098;15.446;2023-06-05T09:22:51;14.90;99.90
7163;DHT22;3623;47.098;15.446;2023-06-05T09:25:18;15.10;99.90
7163;DHT22;3623;47.098;15.446;2023-06-05T09:28:05;15.20;99.90
7163;DHT22;3623;47.098;15.446;2023-06-05T09:30:35;15.10;99.90
7163;DHT22;3623;47.098;15.446;2023-06-05T09:33:32;15.10;99.90
7163;DHT22;3623;47.098;15.446;2023-06-05T09:36:06;15.10;99.90
7163;DHT22;3623;47.098;15.446;2023-06-05T09:38:34;15.20;99.90
7163;DHT22;3623;47.098;15.446;2023-06-05T09:41:05;15.30;99.90
7163;DHT22;3623;47.098;15.446;2023-06-05T09:43:36;15.50;99.90
7163;DHT22;3623;47.098;15.446;2023-06-05T09:46:07;15.60;99.90
7163;DHT22;3623;47.098;15.446;2023-06-05T09:48:34;15.80;99.90
7163;DHT22;3623;47.098;15.446;2023-06-05T09:51:11;15.80;99.90
7163;DHT22;3623;47.098;15.446;2023-06-05T09:53:42;15.70;99.90
7163;DHT22;3623;47.098;15.446;2023-06-05T09:56:16;15.70;99.90
7163;DHT22;3623;47.098;15.446;2023-06-05T09:59:03;15.80;99.90
7163;DHT22;3623;47.098;15.446;2023-06-05T10:01:36;15.70;99.90
7163;DHT22;3623;47.098;15.446;2023-06-05T10:04:06;15.70;99.90
7163;DHT22;3623;47.098;15.446;2023-06-05T10:06:38;15.80;99.90
7163;DHT22;3623;47.098;15.446;2023-06-05T10:09:09;15.80;99.90
7163;DHT22;3623;47.098;15.446;2023-06-05T10:11:44;15.80;99.90
7163;DHT22;3623;47.098;15.446;2023-06-05T10:14:15;15.70;99.90
7163;DHT22;3623;47.098;15.446;2023-06-05T10:16:43;15.60;99.90
7163;DHT22;3623;47.098;15.446;2023-06-05T10:19:11;15.70;99.90
7163;DHT22;3623;47.098;15.446;2023-06-05T10:21:41;15.80;99.90
7163;DHT22;3623;47.098;15.446;2023-06-05T10:24:11;15.80;99.90
7163;DHT22;3623;47.098;15.446;2023-06-05T10:27:03;15.90;99.90
7163;DHT22;3623;47.098;15.446;2023-06-05T10:29:55;16.00;99.90
7163;DHT22;3623;47.098;15.446;2023-06-05T10:32:36;16.10;99.90
7163;DHT22;3623;47.098;15.446;2023-06-05T10:35:18;16.10;99.90
7163;DHT22;3623;47.098;15.446;2023-06-05T10:38:04;15.80;99.90
7163;DHT22;3623;47.098;15.446;2023-06-05T10:40:35;15.90;99.90
7163;DHT22;3623;47.098;15.446;2023-06-05T10:43:23;15.80;99.90
7163;DHT22;3623;47.098;15.446;2023-06-05T10:45:51;15.90;99.90
7163;DHT22;3623;47.098;15.446;2023-06-05T10:48:18;15.60;99.90
7163;DHT22;3623;47.098;15.446;2023-06-05T10:50:46;16.20;99.90
7163;DHT22;3623;47.098;15.446;2023-06-05T10:53:46;16.20;99.90
7163;DHT22;3623;47.098;15.446;2023-06-05T10:59:14;16.20;99.90
7163;DHT22;3623;47.098;15.446;2023-06-05T11:01:44;16.00;99.90
7163;DHT22;3623;47.098;15.446;2023-06-05T11:04:11;15.80;99.90
7163;DHT22;3623;47.098;15.446;2023-06-05T11:06:38;15.80;99.90
7163;DHT22;3623;47.098;15.446;2023-06-05T11:09:11;15.70;99.90
7163;DHT22;3623;47.098;15.446;2023-06-05T11:11:56;15.60;99.90
7163;DHT22;3623;47.098;15.446;2023-06-05T11:14:23;15.60;99.90
7163;DHT22;3623;47.098;15.446;2023-06-05T11:16:51;15.50;99.90
7163;DHT22;3623;47.098;15.446;2023-06-05T11:19:42;15.40;99.90
7163;DHT22;3623;47.098;15.446;2023-06-05T11:22:10;15.30;99.90
7163;DHT22;3623;47.098;15.446;2023-06-05T11:24:39;15.30;99.90
7163;DHT22;3623;47.098;15.446;2023-06-05T11:27:07;15.50;99.90
7163;DHT22;3623;47.098;15.446;2023-06-05T11:29:54;15.30;99.90
7163;DHT22;3623;47.098;15.446;2023-06-05T11:32:25;15.20;99.90
7163;DHT22;3623;47.098;15.446;2023-06-05T11:34:53;15.20;99.90
7163;DHT22;3623;47.098;15.446;2023-06-05T11:37:22;15.20;99.90
7163;DHT22;3623;47.098;15.446;2023-06-05T11:39:52;15.30;99.90
7163;DHT22;3623;47.098;15.446;2023-06-05T11:42:22;15.20;99.90
7163;DHT22;3623;47.098;15.446;2023-06-05T11:44:50;15.10;99.90
7163;DHT22;3623;47.098;15.446;2023-06-05T11:47:23;15.20;99.90
7163;DHT22;3623;47.098;15.446;2023-06-05T11:49:50;15.00;99.90
7163;DHT22;3623;47.098;15.446;2023-06-05T11:52:18;15.50;99.90
7163;DHT22;3623;47.098;15.446;2023-06-05T11:54:46;15.10;99.90
7163;DHT22;3623;47.098;15.446;2023-06-05T11:57:40;15.10;99.90
7163;DHT22;3623;47.098;15.446;2023-06-05T12:00:09;15.10;99.90
7163;DHT22;3623;47.098;15.446;2023-06-05T12:02:37;15.30;99.90
7163;DHT22;3623;47.098;15.446;2023-06-05T12:05:05;15.40;99.90
7163;DHT22;3623;47.098;15.446;2023-06-05T12:07:37;15.40;99.90
7163;DHT22;3623;47.098;15.446;2023-06-05T12:10:07;15.50;99.90
7163;DHT22;3623;47.098;15.446;2023-06-05T12:12:34;15.50;99.90
7163;DHT22;3623;47.098;15.446;2023-06-05T12:15:15;15.40;99.90
7163;DHT22;3623;47.098;15.446;2023-06-05T12:17:48;15.40;99.90
7163;DHT22;3623;47.098;15.446;2023-06-05T12:20:16;15.60;99.90
7163;DHT22;3623;47.098;15.446;2023-06-05T12:22:44;15.60;99.90
7163;DHT22;3623;47.098;15.446;2023-06-05T12:25:17;15.60;99.90
7163;DHT22;3623;47.098;15.446;2023-06-05T12:27:45;15.70;99.90
7163;DHT22;3623;47.098;15.446;2023-06-05T12:30:14;15.70;99.90
7163;DHT22;3623;47.098;15.446;2023-06-05T12:32:47;15.80;99.90
7163;DHT22;3623;47.098;15.446;2023-06-05T12:35:24;15.90;99.90
7163;DHT22;3623;47.098;15.446;2023-06-05T12:37:59;16.00;99.90
7163;DHT22;3623;47.098;15.446;2023-06-05T12:40:29;16.00;99.90
7163;DHT22;3623;47.098;15.446;2023-06-05T12:42:57;16.00;99.90
7163;DHT22;3623;47.098;15.446;2023-06-05T12:45:24;15.90;99.90
7163;DHT22;3623;47.098;15.446;2023-06-05T12:47:56;15.80;99.90
7163;DHT22;3623;47.098;15.446;2023-06-05T12:50:23;15.80;99.90
7163;DHT22;3623;47.098;15.446;2023-06-05T12:52:51;15.80;99.90
7163;DHT22;3623;47.098;15.446;2023-06-05T12:55:19;15.80;99.90
7163;DHT22;3623;47.098;15.446;2023-06-05T12:57:47;15.90;99.90
7163;DHT22;3623;47.098;15.446;2023-06-05T13:00:15;15.90;99.90
7163;DHT22;3623;47.098;15.446;2023-06-05T13:02:44;15.90;99.90
7163;DHT22;3623;47.098;15.446;2023-06-05T13:05:15;15.70;99.90
7163;DHT22;3623;47.098;15.446;2023-06-05T13:07:43;15.80;99.90
7163;DHT22;3623;47.098;15.446;2023-06-05T13:10:10;15.70;99.90
7163;DHT22;3623;47.098;15.446;2023-06-05T13:12:38;15.60;99.90
7163;DHT22;3623;47.098;15.446;2023-06-05T13:15:06;15.70;99.90
7163;DHT22;3623;47.098;15.446;2023-06-05T13:17:33;15.70;99.90
7163;DHT22;3623;47.098;15.446;2023-06-05T13:20:02;15.80;99.90
7163;DHT22;3623;47.098;15.446;2023-06-05T13:22:33;15.90;99.90
7163;DHT22;3623;47.098;15.446;2023-06-05T13:25:01;15.90;99.90
7163;DHT22;3623;47.098;15.446;2023-06-05T13:27:31;15.80;99.90
7163;DHT22;3623;47.098;15.446;2023-06-05T13:29:58;15.90;99.90
7163;DHT22;3623;47.098;15.446;2023-06-05T13:32:25;15.90;99.90
7163;DHT22;3623;47.098;15.446;2023-06-05T13:34:52;15.80;99.90
7163;DHT22;3623;47.098;15.446;2023-06-05T13:37:29;15.80;99.90
7163;DHT22;3623;47.098;15.446;2023-06-05T13:39:57;15.70;99.90
7163;DHT22;3623;47.098;15.446;2023-06-05T13:42:28;15.70;99.90
7163;DHT22;3623;47.098;15.446;2023-06-05T13:44:56;15.70;99.90
7163;DHT22;3623;47.098;15.446;2023-06-05T13:47:28;15.80;99.90
7163;DHT22;3623;47.098;15.446;2023-06-05T13:49:55;15.70;99.90
7163;DHT22;3623;47.098;15.446;2023-06-05T13:52:26;15.70;99.90
7163;DHT22;3623;47.098;15.446;2023-06-05T13:54:53;15.70;99.90
7163;DHT22;3623;47.098;15.446;2023-06-05T13:57:27;15.80;99.90
7163;DHT22;3623;47.098;15.446;2023-06-05T13:59:54;15.80;99.90
7163;DHT22;3623;47.098;15.446;2023-06-05T14:02:22;15.80;99.90
7163;DHT22;3623;47.098;15.446;2023-06-05T14:04:49;15.90;99.90
7163;DHT22;3623;47.098;15.446;2023-06-05T14:07:16;15.80;99.90
7163;DHT22;3623;47.098;15.446;2023-06-05T14:09:44;15.80;99.90
7163;DHT22;3623;47.098;15.446;2023-06-05T14:12:13;15.90;99.90
7163;DHT22;3623;47.098;15.446;2023-06-05T14:14:42;15.90;99.90
7163;DHT22;3623;47.098;15.446;2023-06-05T14:17:10;15.80;99.90
7163;DHT22;3623;47.098;15.446;2023-06-05T14:19:43;15.80;99.90
7163;DHT22;3623;47.098;15.446;2023-06-05T14:22:14;15.80;99.90
7163;DHT22;3623;47.098;15.446;2023-06-05T14:24:41;15.70;99.90
7163;DHT22;3623;47.098;15.446;2023-06-05T14:27:08;15.70;99.90
7163;DHT22;3623;47.098;15.446;2023-06-05T14:29:39;15.80;99.90
7163;DHT22;3623;47.098;15.446;2023-06-05T14:32:08;15.80;99.90
7163;DHT22;3623;47.098;15.446;2023-06-05T14:34:35;15.60;99.90
7163;DHT22;3623;47.098;15.446;2023-06-05T14:37:02;15.80;99.90
7163;DHT22;3623;47.098;15.446;2023-06-05T14:39:42;15.80;99.90
7163;DHT22;3623;47.098;15.446;2023-06-05T14:42:19;15.70;99.90
7163;DHT22;3623;47.098;15.446;2023-06-05T14:44:52;15.70;99.90
7163;DHT22;3623;47.098;15.446;2023-06-05T14:47:23;15.70;99.90
7163;DHT22;3623;47.098;15.446;2023-06-05T14:49:52;15.60;99.90
7163;DHT22;3623;47.098;15.446;2023-06-05T14:52:22;15.70;99.90
7163;DHT22;3623;47.098;15.446;2023-06-05T14:54:49;15.70;99.90
7163;DHT22;3623;47.098;15.446;2023-06-05T14:57:17;15.70;99.90
7163;DHT22;3623;47.098;15.446;2023-06-05T14:59:44;15.80;99.90
7163;DHT22;3623;47.098;15.446;2023-06-05T15:02:11;15.60;99.90
7163;DHT22;3623;47.098;15.446;2023-06-05T15:04:43;15.60;99.90
7163;DHT22;3623;47.098;15.446;2023-06-05T15:07:12;15.60;99.90
7163;DHT22;3623;47.098;15.446;2023-06-05T15:09:40;15.70;99.90
7163;DHT22;3623;47.098;15.446;2023-06-05T15:12:08;15.60;99.90
7163;DHT22;3623;47.098;15.446;2023-06-05T15:14:35;15.70;99.90
7163;DHT22;3623;47.098;15.446;2023-06-05T15:17:09;15.70;99.90
7163;DHT22;3623;47.098;15.446;2023-06-05T15:19:47;15.70;99.90
7163;DHT22;3623;47.098;15.446;2023-06-05T15:22:23;15.80;99.90
7163;DHT22;3623;47.098;15.446;2023-06-05T15:24:56;15.80;99.90
7163;DHT22;3623;47.098;15.446;2023-06-05T15:27:25;15.80;99.90
7163;DHT22;3623;47.098;15.446;2023-06-05T15:29:52;15.80;99.90
7163;DHT22;3623;47.098;15.446;2023-06-05T15:32:20;15.80;99.90
7163;DHT22;3623;47.098;15.446;2023-06-05T15:34:56;15.80;99.90
7163;DHT22;3623;47.098;15.446;2023-06-05T15:37:23;16.00;99.90
7163;DHT22;3623;47.098;15.446;2023-06-05T15:39:51;15.60;99.90
7163;DHT22;3623;47.098;15.446;2023-06-05T15:42:27;15.60;99.90
7163;DHT22;3623;47.098;15.446;2023-06-05T15:45:05;15.50;99.90
7163;DHT22;3623;47.098;15.446;2023-06-05T15:47:33;15.60;99.90
7163;DHT22;3623;47.098;15.446;2023-06-05T15:50:03;15.50;99.90
7163;DHT22;3623;47.098;15.446;2023-06-05T15:52:36;15.40;99.90
7163;DHT22;3623;47.098;15.446;2023-06-05T15:55:05;15.40;99.90
7163;DHT22;3623;47.098;15.446;2023-06-05T15:57:32;15.40;99.90
7163;DHT22;3623;47.098;15.446;2023-06-05T15:59:59;15.40;99.90
7163;DHT22;3623;47.098;15.446;2023-06-05T16:02:26;15.40;99.90
7163;DHT22;3623;47.098;15.446;2023-06-05T16:04:53;15.50;99.90
7163;DHT22;3623;47.098;15.446;2023-06-05T16:07:25;15.40;99.90